createdAt,value
2023-05-21T01:07:45.733Z,16.05
2023-05-21T01:17:07.287Z,16.03
2023-05-21T01:19:55.165Z,16.00
2023-05-21T01:22:33.762Z,15.93
2023-05-21T01:25:13.016Z,15.94
2023-05-21T01:27:48.090Z,15.93
2023-05-21T01:30:25.561Z,15.94
2023-05-21T01:33:07.269Z,15.93
2023-05-21T01:35:45.409Z,15.92
2023-05-21T01:38:24.636Z,15.93
2023-05-21T01:41:04.256Z,15.94
2023-05-21T01:43:40.133Z,15.90
2023-05-21T01:46:17.865Z,15.92
2023-05-21T01:48:53.470Z,15.86
2023-05-21T01:51:27.510Z,15.88
2023-05-21T01:53:59.812Z,15.88
2023-05-21T01:56:37.622Z,15.79
2023-05-21T01:59:10.651Z,15.78
2023-05-21T02:01:43.898Z,15.79
2023-05-21T02:04:18.794Z,15.74
2023-05-21T02:06:51.622Z,15.70
2023-05-21T02:09:24.127Z,15.68
2023-05-21T02:12:03.530Z,15.62
2023-05-21T02:14:38.981Z,15.62
2023-05-21T02:17:13.829Z,15.61
2023-05-21T02:19:46.334Z,15.56
2023-05-21T02:22:22.937Z,15.52
2023-05-21T02:24:57.853Z,15.49
2023-05-21T02:27:36.500Z,15.45
2023-05-21T02:30:14.069Z,15.41
2023-05-21T02:32:50.084Z,15.37
2023-05-21T02:35:25.198Z,15.34
2023-05-21T02:37:59.696Z,15.37
2023-05-21T02:40:42.304Z,15.37
2023-05-21T02:43:19.270Z,15.35
2023-05-21T02:45:52.722Z,15.33
2023-05-21T02:48:27.100Z,15.29
2023-05-21T02:50:59.871Z,15.25
2023-05-21T02:53:35.972Z,15.22
2023-05-21T02:56:08.871Z,15.23
2023-05-21T02:58:44.926Z,15.17
2023-05-21T03:01:17.822Z,15.16
2023-05-21T03:03:52.982Z,15.09
2023-05-21T03:06:25.339Z,15.07
2023-05-21T03:09:06.280Z,15.06
2023-05-21T03:11:38.694Z,15.10
2023-05-21T03:14:14.140Z,15.05
2023-05-21T03:16:46.746Z,15.07
2023-05-21T03:19:19.802Z,15.03
2023-05-21T03:21:53.333Z,15.04
2023-05-21T03:24:26.748Z,15.03
2023-05-21T03:26:59.646Z,15.08
2023-05-21T03:29:34.990Z,15.05
2023-05-21T03:32:07.840Z,15.10
2023-05-21T03:34:41.864Z,15.09
2023-05-21T03:37:14.112Z,15.12
2023-05-21T03:39:47.823Z,15.12
2023-05-21T03:42:20.936Z,15.14
2023-05-21T03:44:57.061Z,15.15
2023-05-21T03:47:29.800Z,15.20
2023-05-21T03:50:02.655Z,15.20
2023-05-21T03:52:35.458Z,15.22
2023-05-21T03:55:10.546Z,15.25
2023-05-21T03:57:46.822Z,15.30
2023-05-21T04:00:23.410Z,15.41
2023-05-21T04:02:55.735Z,15.41
2023-05-21T04:05:28.310Z,15.42
2023-05-21T04:08:01.055Z,15.44
2023-05-21T04:10:33.503Z,15.55
2023-05-21T04:13:05.768Z,15.63
2023-05-21T04:15:42.214Z,15.71
2023-05-21T04:18:14.451Z,15.82
2023-05-21T04:20:47.737Z,15.82
2023-05-21T04:23:20.141Z,15.87
2023-05-21T04:26:02.305Z,16.00
2023-05-21T04:28:35.765Z,16.15
2023-05-21T04:31:14.867Z,16.18
2023-05-21T04:34:01.281Z,16.28
2023-05-21T04:36:34.535Z,16.29
2023-05-21T04:39:12.731Z,16.44
2023-05-21T04:41:51.300Z,16.53
2023-05-21T04:45:16.833Z,16.60
2023-05-21T04:47:54.271Z,16.73
2023-05-21T04:50:26.648Z,16.86
2023-05-21T04:53:00.265Z,16.89
2023-05-21T04:55:32.619Z,17.08
2023-05-21T04:58:06.738Z,17.31
2023-05-21T05:00:39.692Z,17.33
2023-05-21T05:03:17.621Z,17.39
2023-05-21T05:06:08.511Z,17.44
2023-05-21T05:08:51.946Z,17.46
2023-05-21T05:11:31.594Z,17.64
2023-05-21T05:14:12.541Z,17.79
2023-05-21T05:16:49.189Z,17.94
2023-05-21T05:19:27.417Z,18.47
2023-05-21T05:22:01.112Z,18.93
2023-05-21T05:24:34.588Z,19.09
2023-05-21T05:27:20.416Z,19.42
2023-05-21T05:29:55.352Z,19.73
2023-05-21T05:32:31.858Z,19.68
2023-05-21T05:35:13.716Z,20.00
2023-05-21T05:37:48.858Z,19.99
2023-05-21T05:47:12.964Z,19.73
2023-05-21T05:49:50.903Z,19.70
2023-05-21T05:52:26.548Z,19.77
2023-05-21T05:55:02.313Z,19.89
2023-05-21T05:57:37.751Z,20.01
2023-05-21T06:00:16.691Z,19.92
2023-05-21T06:03:03.716Z,20.11
2023-05-21T06:05:53.316Z,20.03
2023-05-21T06:08:38.332Z,19.77
2023-05-21T06:15:26.727Z,19.75
2023-05-21T06:20:20.223Z,19.67
2023-05-21T06:22:22.018Z,19.45
2023-05-21T06:25:11.626Z,19.30
2023-05-21T06:28:31.544Z,19.37
2023-05-21T06:40:46.474Z,19.35
2023-05-21T07:15:41.561Z,23.44
2023-05-21T07:18:15.747Z,23.83
2023-05-21T07:20:48.414Z,24.34
2023-05-21T07:23:24.927Z,24.70
2023-05-21T07:26:00.420Z,25.10
2023-05-21T07:29:01.411Z,25.18
2023-05-21T07:55:07.190Z,27.72
2023-05-21T07:57:40.116Z,27.47
2023-05-21T08:00:16.380Z,27.33
2023-05-21T08:02:49.665Z,28.14
2023-05-21T08:05:24.348Z,27.90
2023-05-21T08:07:57.140Z,27.85
2023-05-21T08:10:31.775Z,28.27
2023-05-21T08:13:04.687Z,28.22
2023-05-21T08:15:45.551Z,28.42
2023-05-21T08:18:24.174Z,28.87
2023-05-21T08:20:57.168Z,29.02
2023-05-21T08:23:36.353Z,28.77
2023-05-21T08:26:12.315Z,28.75
2023-05-21T08:28:49.438Z,28.94
2023-05-21T08:31:23.201Z,28.72
2023-05-21T08:33:58.022Z,28.71
2023-05-21T08:36:57.259Z,28.98
2023-05-21T08:39:41.272Z,28.92
2023-05-21T08:42:42.058Z,29.23
2023-05-21T08:45:46.701Z,29.21
2023-05-21T08:48:28.373Z,29.84
2023-05-21T08:51:30.824Z,29.78
2023-05-21T08:54:33.663Z,29.95
2023-05-21T08:57:45.135Z,29.27
2023-05-21T09:03:43.960Z,29.64
2023-05-21T09:04:12.199Z,29.63
2023-05-21T09:07:00.544Z,29.21
2023-05-21T09:09:48.492Z,29.02
2023-05-21T09:12:21.412Z,29.04
2023-05-21T09:14:54.987Z,28.62
2023-05-21T09:17:32.375Z,28.87
2023-05-21T09:20:23.634Z,28.92
2023-05-21T09:23:01.484Z,28.99
2023-05-21T09:25:35.746Z,28.49
2023-05-21T09:28:14.742Z,28.13
2023-05-21T09:30:53.344Z,28.31
2023-05-21T09:33:35.750Z,28.39
2023-05-21T09:36:12.621Z,28.79
2023-05-21T09:38:53.079Z,29.41
2023-05-21T09:41:38.597Z,29.04
2023-05-21T09:44:11.489Z,29.52
2023-05-21T09:46:48.255Z,29.95
2023-05-21T09:49:45.540Z,29.78
2023-05-21T09:52:35.205Z,30.03
2023-05-21T09:55:47.508Z,29.95
2023-05-21T09:58:44.123Z,29.57
2023-05-21T10:01:29.682Z,29.69
2023-05-21T10:04:38.000Z,29.38
2023-05-21T10:07:30.769Z,29.09
2023-05-21T10:10:14.870Z,29.50
2023-05-21T10:12:53.583Z,29.77
2023-05-21T10:15:35.558Z,29.96
2023-05-21T10:18:08.552Z,30.21
2023-05-21T10:20:42.452Z,30.34
2023-05-21T10:23:18.157Z,30.35
2023-05-21T10:25:53.710Z,30.36
2023-05-21T10:28:34.387Z,30.08
2023-05-21T10:31:08.033Z,30.15
2023-05-21T10:33:46.505Z,30.58
2023-05-21T10:36:26.019Z,30.52
2023-05-21T10:39:05.721Z,30.22
2023-05-21T10:41:52.401Z,30.09
2023-05-21T10:44:36.592Z,30.22
2023-05-21T10:48:05.592Z,30.07
2023-05-21T10:51:03.537Z,29.79
2023-05-21T10:53:49.526Z,29.51
2023-05-21T10:56:29.249Z,29.14
2023-05-21T10:59:22.567Z,28.53
2023-05-21T11:02:05.364Z,28.13
2023-05-21T11:04:42.516Z,28.28
2023-05-21T11:07:38.118Z,28.02
2023-05-21T11:10:58.513Z,28.08
2023-05-21T11:13:53.751Z,28.18
2023-05-21T11:16:45.073Z,27.92
2023-05-21T11:19:31.258Z,28.19
2023-05-21T11:22:20.562Z,28.36
2023-05-21T11:24:54.677Z,28.54
2023-05-21T11:30:36.904Z,29.03
2023-05-21T11:33:48.079Z,28.95
2023-05-21T11:36:33.434Z,28.63
2023-05-21T11:39:52.116Z,29.07
2023-05-21T11:42:44.508Z,29.08
2023-05-21T11:45:39.002Z,29.23
2023-05-21T11:48:20.930Z,29.18
2023-05-21T11:50:59.196Z,29.12
2023-05-21T11:53:41.093Z,28.88
2023-05-21T11:56:21.307Z,28.73
2023-05-21T12:02:13.633Z,28.68
2023-05-21T12:08:03.677Z,28.24
2023-05-21T12:10:51.705Z,27.87
2023-05-21T12:13:37.505Z,27.98
2023-05-21T12:16:26.262Z,27.93
2023-05-21T12:19:04.127Z,27.71
2023-05-21T12:21:42.363Z,27.63
2023-05-21T12:24:19.206Z,27.66
2023-05-21T12:27:14.486Z,27.81
2023-05-21T12:29:53.619Z,27.79
2023-05-21T12:32:32.367Z,27.88
2023-05-21T12:35:08.092Z,27.95
2023-05-21T12:37:42.788Z,27.83
2023-05-21T12:40:16.791Z,27.81
2023-05-21T12:42:52.804Z,27.70
2023-05-21T12:45:29.759Z,27.68
2023-05-21T12:48:34.237Z,27.84
2023-05-21T12:51:35.189Z,27.71
2023-05-21T12:54:17.592Z,27.69
2023-05-21T12:56:50.239Z,27.79
2023-05-21T12:59:23.471Z,27.89
2023-05-21T13:01:57.589Z,27.94
2023-05-21T13:04:31.196Z,27.68
2023-05-21T13:07:06.702Z,27.62
2023-05-21T13:09:39.717Z,27.64
2023-05-21T13:12:25.564Z,27.58
2023-05-21T13:18:12.724Z,27.41
2023-05-21T13:20:49.281Z,27.44
2023-05-21T13:23:26.516Z,27.51
2023-05-21T13:26:02.651Z,27.46
2023-05-21T13:28:44.765Z,27.27
2023-05-21T13:31:21.411Z,27.19
2023-05-21T13:33:54.536Z,27.19
2023-05-21T13:36:32.445Z,27.36
2023-05-21T13:39:16.889Z,27.51
2023-05-21T13:41:53.829Z,27.57
2023-05-21T13:44:36.332Z,27.36
2023-05-21T13:47:11.010Z,27.30
2023-05-21T13:49:45.932Z,27.19
2023-05-21T13:52:19.916Z,27.01
2023-05-21T13:55:05.433Z,26.89
2023-05-21T13:57:38.874Z,26.90
2023-05-21T14:00:16.558Z,26.92
2023-05-21T14:02:50.848Z,26.90
2023-05-21T14:05:24.752Z,26.79
2023-05-21T14:07:58.066Z,26.83
2023-05-21T14:10:33.838Z,26.80
2023-05-21T14:13:19.052Z,26.91
2023-05-21T14:15:53.817Z,27.04
2023-05-21T14:18:34.612Z,27.19
2023-05-21T14:21:10.485Z,26.93
2023-05-21T14:23:43.795Z,26.75
2023-05-21T14:26:20.370Z,26.83
2023-05-21T14:28:54.160Z,26.84
2023-05-21T14:31:28.451Z,26.85
2023-05-21T14:34:01.009Z,26.89
2023-05-21T14:36:53.712Z,27.07
2023-05-21T14:39:30.897Z,27.08
2023-05-21T14:42:20.718Z,27.08
2023-05-21T14:45:19.381Z,27.00
2023-05-21T14:48:36.828Z,26.92
2023-05-21T14:52:03.366Z,26.84
2023-05-21T14:55:06.058Z,26.84
2023-05-21T14:57:51.867Z,27.03
2023-05-21T15:00:38.088Z,26.96
2023-05-21T15:03:20.148Z,26.87
2023-05-21T15:06:00.505Z,26.97
2023-05-21T15:08:46.556Z,26.99
2023-05-21T15:11:37.634Z,26.92
2023-05-21T15:14:30.867Z,26.83
2023-05-21T15:17:08.354Z,26.93
2023-05-21T15:19:47.390Z,26.95
2023-05-21T15:22:49.115Z,26.90
2023-05-21T15:25:32.825Z,26.96
2023-05-21T15:28:05.233Z,27.00
2023-05-21T15:30:48.926Z,26.98
2023-05-21T15:33:21.469Z,26.90
2023-05-21T15:36:08.861Z,26.79
2023-05-21T15:38:41.638Z,26.76
2023-05-21T15:41:13.984Z,26.68
2023-05-21T15:43:46.958Z,26.63
2023-05-21T15:46:24.170Z,26.53
2023-05-21T15:48:58.670Z,26.45
2023-05-21T15:51:31.553Z,26.37
2023-05-21T15:54:04.189Z,26.31
2023-05-21T15:56:36.481Z,26.22
2023-05-21T15:59:09.042Z,26.30
2023-05-21T16:01:44.183Z,26.33
2023-05-21T16:04:18.392Z,26.31
2023-05-21T16:06:51.224Z,26.39
2023-05-21T16:09:28.048Z,26.23
2023-05-21T16:12:00.206Z,26.35
2023-05-21T16:14:32.950Z,26.46
2023-05-21T16:17:38.903Z,26.38
2023-05-21T16:23:06.881Z,26.37
2023-05-21T16:25:40.584Z,26.25
2023-05-21T16:28:16.224Z,26.19
2023-05-21T16:30:49.954Z,26.19
2023-05-21T16:33:28.430Z,26.18
2023-05-21T16:36:01.351Z,26.20
2023-05-21T16:38:38.802Z,26.25
2023-05-21T16:41:11.475Z,26.18
2023-05-21T16:43:47.157Z,26.15
2023-05-21T16:46:20.867Z,26.16
2023-05-21T16:48:56.151Z,25.98
2023-05-21T16:57:16.867Z,25.75
2023-05-21T16:59:56.127Z,25.81
2023-05-21T17:02:30.791Z,25.72
2023-05-21T17:05:07.307Z,25.77
2023-05-21T17:07:41.522Z,25.68
2023-05-21T17:10:17.793Z,25.63
2023-05-21T17:12:54.748Z,25.50
2023-05-21T17:15:33.603Z,25.38
2023-05-21T17:18:10.900Z,25.47
2023-05-21T17:20:48.198Z,25.41
2023-05-21T17:26:26.745Z,25.41
2023-05-21T17:29:02.291Z,25.40
2023-05-21T17:31:50.279Z,25.21
2023-05-21T17:34:35.409Z,25.23
2023-05-21T17:40:12.311Z,25.16
2023-05-21T17:42:56.449Z,25.16
2023-05-21T17:45:49.884Z,25.08
2023-05-21T17:48:25.035Z,24.98
2023-05-21T17:51:12.586Z,24.93
2023-05-21T17:57:42.429Z,24.86
2023-05-21T18:00:17.842Z,24.83
2023-05-21T18:03:00.028Z,24.77
2023-05-21T18:08:43.829Z,24.64
2023-05-21T18:37:13.961Z,24.14
2023-05-21T18:58:04.228Z,23.74
2023-05-21T19:06:40.273Z,23.58
2023-05-21T19:42:49.558Z,23.00
2023-05-21T19:45:29.033Z,22.96
2023-05-21T19:48:21.669Z,22.91
2023-05-21T19:50:55.390Z,22.90
2023-05-21T19:53:33.564Z,22.82
2023-05-21T19:56:06.749Z,22.90
2023-05-21T20:01:37.056Z,22.77
2023-05-21T20:04:10.850Z,22.75
2023-05-21T20:10:03.502Z,22.64
2023-05-21T20:12:52.148Z,22.57
2023-05-21T20:15:31.151Z,22.55
2023-05-21T20:18:04.229Z,22.52
2023-05-21T20:20:40.313Z,22.55
2023-05-21T20:23:15.006Z,22.53
2023-05-21T20:28:22.871Z,22.49
2023-05-21T20:31:05.516Z,22.43
2023-05-21T20:33:46.040Z,22.37
2023-05-21T21:02:43.552Z,22.10
2023-05-21T21:05:31.743Z,22.04
2023-05-21T21:08:37.824Z,22.02
2023-05-21T21:11:27.030Z,22.04
2023-05-21T21:14:44.973Z,22.00
2023-05-21T21:17:35.343Z,21.97
2023-05-21T21:20:20.707Z,21.90
2023-05-21T21:22:56.191Z,21.87
2023-05-21T21:25:31.385Z,21.82
2023-05-21T21:28:03.712Z,21.79
2023-05-21T21:30:41.346Z,21.78
2023-05-21T21:33:15.040Z,21.78
2023-05-21T21:36:07.224Z,21.76
2023-05-21T21:38:54.621Z,21.70
2023-05-21T21:41:35.337Z,21.66
2023-05-21T21:47:00.926Z,21.59
2023-05-21T21:49:33.723Z,21.51
2023-05-21T21:52:20.288Z,21.45
2023-05-21T21:54:55.870Z,21.37
2023-05-21T21:57:30.669Z,21.37
2023-05-21T22:00:03.505Z,21.30
2023-05-21T22:05:44.240Z,21.31
2023-05-21T22:08:17.490Z,21.19
2023-05-21T22:10:50.233Z,21.27
2023-05-21T22:13:23.189Z,21.24
2023-05-21T22:15:58.069Z,21.20
2023-05-21T22:18:41.096Z,21.13
2023-05-21T22:21:18.865Z,21.06
2023-05-21T22:23:52.323Z,21.12
2023-05-21T22:26:29.261Z,21.10
2023-05-21T22:29:02.404Z,21.02
2023-05-21T22:31:34.999Z,21.03
2023-05-21T22:34:10.423Z,21.00
2023-05-21T22:36:44.485Z,21.02
2023-05-21T22:39:17.331Z,21.01
2023-05-21T22:41:49.969Z,20.97
2023-05-21T22:44:23.034Z,20.96
2023-05-21T22:47:37.466Z,20.92
2023-05-21T22:50:14.827Z,20.88
2023-05-21T22:52:46.926Z,20.88
2023-05-21T22:55:20.405Z,20.83
2023-05-21T22:57:53.891Z,20.79
2023-05-21T23:00:27.113Z,20.76
2023-05-21T23:02:59.942Z,20.77
2023-05-21T23:05:35.430Z,20.72
2023-05-21T23:08:07.847Z,20.71
2023-05-21T23:10:41.210Z,20.68
2023-05-21T23:13:15.074Z,20.67
2023-05-21T23:15:48.989Z,20.61
2023-05-21T23:18:23.923Z,20.57
2023-05-21T23:21:07.782Z,20.54
2023-05-21T23:23:40.206Z,20.50
2023-05-21T23:26:14.310Z,20.45
2023-05-21T23:28:53.558Z,20.47
2023-05-21T23:31:26.462Z,20.40
2023-05-21T23:34:13.716Z,20.32
2023-05-21T23:36:49.711Z,20.21
2023-05-21T23:39:21.926Z,20.22
2023-05-21T23:41:54.438Z,20.21
2023-05-21T23:44:28.615Z,20.18
2023-05-21T23:47:02.700Z,20.09
2023-05-21T23:49:34.922Z,20.11
2023-05-21T23:52:13.923Z,20.10
2023-05-21T23:54:46.166Z,20.06
2023-05-21T23:57:19.145Z,19.98
2023-05-21T23:59:52.596Z,19.97
